createdAt,value
2022-08-10T00:00:51.920Z,1.33
2022-08-10T00:03:20.791Z,1.48
2022-08-10T00:05:53.256Z,1.85
2022-08-10T00:08:23.544Z,1.70
2022-08-10T00:10:51.737Z,1.65
2022-08-10T00:13:19.241Z,1.55
2022-08-10T00:15:53.755Z,2.17
2022-08-10T00:18:34.367Z,1.75
2022-08-10T00:21:03.888Z,1.90
2022-08-10T00:23:31.390Z,2.00
2022-08-10T00:25:58.940Z,1.75
2022-08-10T00:28:26.448Z,1.70
2022-08-10T00:30:53.962Z,2.03
2022-08-10T00:33:22.866Z,2.40
2022-08-10T00:35:50.653Z,1.70
2022-08-10T00:38:18.164Z,1.88
2022-08-10T00:40:46.127Z,1.83
2022-08-10T00:43:13.681Z,1.70
2022-08-10T00:45:41.169Z,2.03
2022-08-10T00:48:10.176Z,2.10
2022-08-10T00:50:40.031Z,1.73
2022-08-10T00:53:08.113Z,1.60
2022-08-10T00:57:07.848Z,1.92
2022-08-10T00:58:23.473Z,1.70
2022-08-10T01:00:53.730Z,1.85
2022-08-10T01:04:57.351Z,2.03
2022-08-10T01:06:13.534Z,1.98
2022-08-10T01:08:48.251Z,1.50
2022-08-10T01:12:39.092Z,1.80
2022-08-10T01:14:08.615Z,1.77
2022-08-10T01:16:38.112Z,2.80
2022-08-10T01:19:12.029Z,2.00
2022-08-10T01:21:56.779Z,1.92
2022-08-10T01:24:48.892Z,2.00
2022-08-10T01:27:27.416Z,2.20
2022-08-10T01:30:01.403Z,2.38
2022-08-10T01:32:48.452Z,2.10
2022-08-10T01:35:18.364Z,2.08
2022-08-10T01:37:52.057Z,2.53
2022-08-10T01:40:22.957Z,2.10
2022-08-10T01:42:51.204Z,2.13
2022-08-10T01:45:21.934Z,1.75
2022-08-10T01:48:16.613Z,2.20
2022-08-10T01:50:59.615Z,2.25
2022-08-10T01:53:41.341Z,2.08
2022-08-10T01:56:10.133Z,1.98
2022-08-10T01:58:38.015Z,2.38
2022-08-10T02:01:08.648Z,2.25
2022-08-10T02:06:04.173Z,2.40
2022-08-10T02:08:31.761Z,2.30
2022-08-10T02:10:59.825Z,2.33
2022-08-10T02:13:27.635Z,2.60
2022-08-10T02:16:02.029Z,2.13
2022-08-10T02:18:32.312Z,2.60
2022-08-10T02:21:00.833Z,2.60
2022-08-10T02:23:29.924Z,2.50
2022-08-10T02:25:59.600Z,2.30
2022-08-10T02:28:29.964Z,2.25
2022-08-10T02:31:00.252Z,2.80
2022-08-10T02:33:28.679Z,2.60
2022-08-10T02:35:57.836Z,2.67
2022-08-10T02:38:57.488Z,2.75
2022-08-10T02:45:10.988Z,2.30
2022-08-10T02:45:20.242Z,2.63
2022-08-10T02:46:56.838Z,2.28
2022-08-10T02:49:27.548Z,2.45
2022-08-10T02:54:39.709Z,2.35
2022-08-10T02:57:10.201Z,2.72
2022-08-10T02:59:41.016Z,2.72
2022-08-10T03:02:11.546Z,2.42
2022-08-10T03:04:55.302Z,2.60
2022-08-10T03:07:43.495Z,2.90
2022-08-10T03:10:16.152Z,3.50
2022-08-10T03:12:44.234Z,2.45
2022-08-10T03:15:15.694Z,3.13
2022-08-10T03:17:57.206Z,2.50
2022-08-10T03:20:37.275Z,2.65
2022-08-10T03:23:08.189Z,2.60
2022-08-10T03:25:37.176Z,2.28
2022-08-10T03:28:05.542Z,2.83
2022-08-10T03:30:34.498Z,2.85
2022-08-10T03:33:03.720Z,3.03
2022-08-10T03:35:31.331Z,2.63
2022-08-10T03:37:59.482Z,3.25
2022-08-10T03:40:45.643Z,2.65
2022-08-10T03:43:16.759Z,2.90
2022-08-10T03:45:54.975Z,3.17
2022-08-10T03:48:24.342Z,2.88
2022-08-10T03:51:00.851Z,3.13
2022-08-10T03:54:05.771Z,2.75
2022-08-10T03:56:28.710Z,2.97
2022-08-10T03:59:00.463Z,2.92
2022-08-10T04:02:45.980Z,3.25
2022-08-10T04:04:22.936Z,2.90
2022-08-10T04:06:54.303Z,3.38
2022-08-10T04:09:22.729Z,3.00
2022-08-10T04:11:50.279Z,2.92
2022-08-10T04:14:35.609Z,3.40
2022-08-10T04:17:09.619Z,3.00
2022-08-10T04:19:43.275Z,2.95
2022-08-10T04:22:14.739Z,3.15
2022-08-10T04:24:42.623Z,3.58
2022-08-10T04:27:10.375Z,2.88
2022-08-10T04:29:39.327Z,2.80
2022-08-10T04:32:10.118Z,3.63
2022-08-10T04:34:38.731Z,3.08
2022-08-10T04:37:09.193Z,3.20
2022-08-10T04:39:37.093Z,2.58
2022-08-10T04:42:05.136Z,3.28
2022-08-10T04:44:32.777Z,3.20
2022-08-10T04:47:01.681Z,3.00
2022-08-10T04:49:55.026Z,3.40
2022-08-10T04:52:17.444Z,3.28
2022-08-10T04:54:44.968Z,2.80
2022-08-10T04:57:13.092Z,3.13
2022-08-10T04:59:40.648Z,3.03
2022-08-10T05:02:30.530Z,3.17
2022-08-10T05:04:57.226Z,3.20
2022-08-10T05:07:24.711Z,3.30
2022-08-10T05:10:01.699Z,2.78
2022-08-10T05:12:36.049Z,2.92
2022-08-10T05:15:05.948Z,3.20
2022-08-10T05:17:35.099Z,3.10
2022-08-10T05:20:06.423Z,2.85
2022-08-10T05:22:39.178Z,3.13
2022-08-10T05:25:08.308Z,2.88
2022-08-10T05:27:36.019Z,3.10
2022-08-10T05:30:04.166Z,3.13
2022-08-10T05:32:32.517Z,3.13
2022-08-10T05:35:21.755Z,3.00
2022-08-10T05:38:08.898Z,3.05
2022-08-10T05:40:39.403Z,2.50
2022-08-10T05:43:07.062Z,2.75
2022-08-10T05:45:34.595Z,2.72
2022-08-10T05:48:55.139Z,2.85
2022-08-10T05:51:10.992Z,2.90
2022-08-10T05:53:59.770Z,2.83
2022-08-10T05:56:27.151Z,2.83
2022-08-10T05:59:16.695Z,3.28
2022-08-10T06:02:34.132Z,3.10
2022-08-10T06:04:53.211Z,2.50
2022-08-10T06:07:22.635Z,3.30
2022-08-10T06:09:58.670Z,2.75
2022-08-10T06:12:30.284Z,2.70
2022-08-10T06:15:21.381Z,2.80
2022-08-10T06:18:01.768Z,2.47
2022-08-10T06:20:35.346Z,2.30
2022-08-10T06:23:05.319Z,2.90
2022-08-10T06:26:08.554Z,2.90
2022-08-10T06:28:21.763Z,2.47
2022-08-10T06:30:50.260Z,2.90
2022-08-10T06:33:18.376Z,2.40
2022-08-10T06:35:46.130Z,2.67
2022-08-10T06:38:15.053Z,2.38
2022-08-10T06:40:44.991Z,2.72
2022-08-10T06:43:15.577Z,2.70
2022-08-10T06:45:44.981Z,2.75
2022-08-10T06:48:33.853Z,2.80
2022-08-10T06:51:02.590Z,2.20
2022-08-10T06:53:52.825Z,2.15
2022-08-10T06:56:36.613Z,2.65
2022-08-10T06:59:08.439Z,2.58
2022-08-10T07:01:51.335Z,2.40
2022-08-10T07:04:32.030Z,2.20
2022-08-10T07:07:01.903Z,2.33
2022-08-10T07:09:32.233Z,2.20
2022-08-10T07:12:08.164Z,2.25
2022-08-10T07:14:38.023Z,2.22
2022-08-10T07:17:06.192Z,2.30
2022-08-10T07:19:34.140Z,2.28
2022-08-10T07:23:27.174Z,2.40
2022-08-10T07:25:09.710Z,2.20
2022-08-10T07:27:59.525Z,2.30
2022-08-10T07:30:28.248Z,2.10
2022-08-10T07:32:56.259Z,1.92
2022-08-10T07:35:25.113Z,1.85
2022-08-10T07:37:53.730Z,1.90
2022-08-10T07:40:23.320Z,2.05
2022-08-10T07:42:53.297Z,2.10
2022-08-10T07:45:20.995Z,2.00
2022-08-10T07:47:55.022Z,2.08
2022-08-10T07:50:24.390Z,1.92
2022-08-10T07:52:52.989Z,2.03
2022-08-10T07:56:01.409Z,1.95
2022-08-10T07:58:10.081Z,1.85
2022-08-10T08:00:38.177Z,2.15
2022-08-10T08:03:07.455Z,1.90
2022-08-10T08:05:57.657Z,1.95
2022-08-10T08:08:23.644Z,1.88
2022-08-10T08:10:52.916Z,1.77
2022-08-10T08:13:21.995Z,1.95
2022-08-10T08:16:18.180Z,1.83
2022-08-10T08:18:39.721Z,1.70
2022-08-10T08:24:05.155Z,1.52
2022-08-10T08:24:07.374Z,1.88
2022-08-10T08:26:49.314Z,1.63
2022-08-10T08:29:20.353Z,1.50
2022-08-10T08:32:01.206Z,1.65
2022-08-10T08:34:30.571Z,1.50
2022-08-10T08:36:59.869Z,1.38
2022-08-10T08:39:27.616Z,1.52
2022-08-10T08:42:01.597Z,1.33
2022-08-10T08:44:35.759Z,1.55
2022-08-10T08:48:02.841Z,1.27
2022-08-10T08:50:12.103Z,1.52
2022-08-10T08:52:45.774Z,1.40
2022-08-10T08:56:04.858Z,1.60
2022-08-10T08:58:21.405Z,1.27
2022-08-10T09:00:53.017Z,1.38
2022-08-10T09:03:35.506Z,1.20
2022-08-10T09:06:07.350Z,1.45
2022-08-10T09:08:43.910Z,1.20
2022-08-10T09:11:17.732Z,1.20
2022-08-10T09:13:52.061Z,1.30
2022-08-10T09:16:24.237Z,1.20
2022-08-10T09:18:54.217Z,1.20
2022-08-10T09:21:24.793Z,1.10
2022-08-10T09:24:04.409Z,1.40
2022-08-10T09:26:39.027Z,1.17
2022-08-10T09:29:12.990Z,1.10
2022-08-10T09:31:55.784Z,1.20
2022-08-10T09:36:22.793Z,0.80
2022-08-10T09:37:39.345Z,1.10
2022-08-10T09:40:59.955Z,0.90
2022-08-10T09:43:25.179Z,0.90
2022-08-10T09:46:08.772Z,1.00
2022-08-10T09:48:44.628Z,0.98
2022-08-10T09:51:43.635Z,1.67
2022-08-10T09:54:08.195Z,1.10
2022-08-10T09:56:38.263Z,0.90
2022-08-10T09:59:29.126Z,0.90
2022-08-10T10:02:04.147Z,0.90
2022-08-10T10:04:40.053Z,1.15
2022-08-10T10:07:08.300Z,1.10
2022-08-10T10:09:40.006Z,1.30
2022-08-10T10:12:12.974Z,1.00
2022-08-10T10:15:01.520Z,1.00
2022-08-10T10:17:41.316Z,0.88
2022-08-10T10:20:11.909Z,1.15
2022-08-10T10:22:43.764Z,0.90
2022-08-10T10:25:19.645Z,0.90
2022-08-10T10:27:52.033Z,0.80
2022-08-10T10:30:20.783Z,1.00
2022-08-10T10:32:57.887Z,1.27
2022-08-10T10:35:28.051Z,0.70
2022-08-10T10:38:01.319Z,1.00
2022-08-10T10:40:35.360Z,1.02
2022-08-10T10:43:06.519Z,1.05
2022-08-10T10:45:50.000Z,0.80
2022-08-10T10:48:24.385Z,0.88
2022-08-10T10:50:59.949Z,0.73
2022-08-10T10:53:31.313Z,0.80
2022-08-10T10:56:14.514Z,0.95
2022-08-10T10:58:49.739Z,1.00
2022-08-10T11:01:26.768Z,0.90
2022-08-10T11:04:03.080Z,0.80
2022-08-10T11:06:40.398Z,1.08
2022-08-10T11:09:11.503Z,0.90
2022-08-10T11:12:03.064Z,1.00
2022-08-10T11:14:34.602Z,1.20
2022-08-10T11:17:03.887Z,1.00
2022-08-10T11:20:00.358Z,1.10
2022-08-10T11:22:29.337Z,0.82
2022-08-10T11:24:59.151Z,0.88
2022-08-10T11:27:33.133Z,0.88
2022-08-10T11:30:03.505Z,1.05
2022-08-10T11:32:36.233Z,1.00
2022-08-10T11:35:10.989Z,0.98
2022-08-10T11:38:31.618Z,0.90
2022-08-10T11:40:32.745Z,1.33
2022-08-10T11:43:07.783Z,1.13
2022-08-10T11:45:36.704Z,0.90
2022-08-10T11:48:09.341Z,1.17
2022-08-10T11:50:41.187Z,1.10
2022-08-10T11:53:11.264Z,0.80
2022-08-10T11:55:38.785Z,0.90
2022-08-10T11:58:28.339Z,0.90
2022-08-10T12:00:55.878Z,1.00
2022-08-10T12:03:23.671Z,0.90
2022-08-10T12:05:55.066Z,1.20
2022-08-10T12:10:02.306Z,1.08
2022-08-10T12:11:17.183Z,1.02
2022-08-10T12:14:19.792Z,1.33
2022-08-10T12:16:46.319Z,1.10
2022-08-10T12:19:16.853Z,0.95
2022-08-10T12:21:47.773Z,0.93
2022-08-10T12:24:19.556Z,1.00
2022-08-10T12:26:51.010Z,1.00
2022-08-10T12:29:25.371Z,0.88
2022-08-10T12:31:55.545Z,1.27
2022-08-10T12:34:27.204Z,1.10
2022-08-10T12:37:00.609Z,1.23
2022-08-10T12:39:28.978Z,0.65
2022-08-10T12:41:58.267Z,1.00
2022-08-10T12:44:40.984Z,0.90
2022-08-10T12:47:15.442Z,0.88
2022-08-10T12:50:29.442Z,1.10
2022-08-10T12:52:38.756Z,1.10
2022-08-10T12:55:08.571Z,0.93
2022-08-10T12:57:37.980Z,1.08
2022-08-10T13:00:06.247Z,1.10
2022-08-10T13:02:48.928Z,1.10
2022-08-10T13:05:16.989Z,1.23
2022-08-10T13:08:27.357Z,1.05
2022-08-10T13:10:42.353Z,1.00
2022-08-10T13:13:14.746Z,0.95
2022-08-10T13:15:50.684Z,0.80
2022-08-10T13:18:23.028Z,1.20
2022-08-10T13:20:51.658Z,1.00
2022-08-10T13:23:22.116Z,1.05
2022-08-10T13:25:51.351Z,1.05
2022-08-10T13:28:35.693Z,0.90
2022-08-10T13:31:07.721Z,0.90
2022-08-10T13:34:41.415Z,1.10
2022-08-10T13:36:30.430Z,0.98
2022-08-10T13:38:59.533Z,0.90
2022-08-10T13:43:57.161Z,1.10
2022-08-10T13:46:24.831Z,0.90
2022-08-10T13:48:53.363Z,0.90
2022-08-10T13:51:22.887Z,1.08
2022-08-10T13:54:12.027Z,1.00
2022-08-10T13:56:42.420Z,0.98
2022-08-10T13:59:10.776Z,1.20
2022-08-10T14:01:47.091Z,0.85
2022-08-10T14:04:14.743Z,1.02
2022-08-10T14:06:42.787Z,1.05
2022-08-10T14:09:13.511Z,1.10
2022-08-10T14:11:42.499Z,1.00
2022-08-10T14:14:14.701Z,0.90
2022-08-10T14:16:42.873Z,1.23
2022-08-10T14:19:12.452Z,0.80
2022-08-10T14:21:40.439Z,0.80
2022-08-10T14:24:20.027Z,1.00
2022-08-10T14:26:49.652Z,1.00
2022-08-10T14:29:19.927Z,1.02
2022-08-10T14:32:01.445Z,1.20
2022-08-10T14:34:59.231Z,0.98
2022-08-10T14:37:20.925Z,1.00
2022-08-10T14:39:49.552Z,1.00
2022-08-10T14:42:27.295Z,1.00
2022-08-10T14:44:56.421Z,0.80
2022-08-10T14:47:53.112Z,0.90
2022-08-10T14:50:31.521Z,1.00
2022-08-10T14:53:01.934Z,0.93
2022-08-10T14:55:31.045Z,0.95
2022-08-10T14:58:22.078Z,0.80
2022-08-10T15:00:50.496Z,1.13
2022-08-10T15:04:01.851Z,0.90
2022-08-10T15:06:08.726Z,1.23
2022-08-10T15:08:47.127Z,1.00
2022-08-10T15:12:14.034Z,0.90
2022-08-10T15:16:53.149Z,1.02
2022-08-10T15:20:00.751Z,0.93
2022-08-10T15:22:30.588Z,0.98
2022-08-10T15:25:04.503Z,1.17
2022-08-10T15:27:53.434Z,0.80
2022-08-10T15:30:29.665Z,0.90
2022-08-10T15:33:21.279Z,0.88
2022-08-10T15:36:23.775Z,0.93
2022-08-10T15:38:57.722Z,1.20
2022-08-10T15:41:58.106Z,1.00
2022-08-10T15:44:23.987Z,0.90
2022-08-10T15:46:53.419Z,0.98
2022-08-10T15:49:26.726Z,0.80
2022-08-10T15:51:58.288Z,1.00
2022-08-10T15:54:33.711Z,0.88
2022-08-10T15:57:02.662Z,0.90
2022-08-10T15:59:32.149Z,0.90
2022-08-10T16:02:13.112Z,1.10
2022-08-10T16:04:48.916Z,1.10
2022-08-10T16:07:18.093Z,1.00
2022-08-10T16:10:23.636Z,1.20
2022-08-10T16:12:38.907Z,1.17
2022-08-10T16:15:08.330Z,1.25
2022-08-10T16:17:55.655Z,0.90
2022-08-10T16:20:27.875Z,1.10
2022-08-10T16:23:00.324Z,1.15
2022-08-10T16:25:48.605Z,1.10
2022-08-10T16:28:23.209Z,0.93
2022-08-10T16:30:52.849Z,1.02
2022-08-10T16:33:24.020Z,0.90
2022-08-10T16:35:57.950Z,0.85
2022-08-10T16:38:26.751Z,1.20
2022-08-10T16:40:55.818Z,0.90
2022-08-10T16:43:24.156Z,1.10
2022-08-10T16:45:53.573Z,1.10
2022-08-10T16:48:49.117Z,1.00
2022-08-10T16:51:14.741Z,1.15
2022-08-10T16:53:47.483Z,0.98
2022-08-10T16:56:15.758Z,2.35
2022-08-10T16:58:45.665Z,1.42
2022-08-10T17:01:15.199Z,1.02
2022-08-10T17:04:06.624Z,1.77
2022-08-10T17:06:34.611Z,1.40
2022-08-10T17:09:03.641Z,1.27
2022-08-10T17:11:32.439Z,1.33
2022-08-10T17:14:00.698Z,1.30
2022-08-10T17:16:33.638Z,1.40
2022-08-10T17:19:02.115Z,1.10
2022-08-10T17:21:31.265Z,1.70
2022-08-10T17:24:02.666Z,1.30
2022-08-10T17:26:35.737Z,1.13
2022-08-10T17:29:08.232Z,1.20
2022-08-10T17:31:54.730Z,1.50
2022-08-10T17:34:25.677Z,1.20
2022-08-10T17:36:57.296Z,1.35
2022-08-10T17:39:29.644Z,1.00
2022-08-10T17:42:00.973Z,1.23
2022-08-10T17:44:28.828Z,1.40
2022-08-10T17:46:56.900Z,1.70
2022-08-10T17:49:26.429Z,1.20
2022-08-10T17:51:55.052Z,1.20
2022-08-10T17:54:25.008Z,1.40
2022-08-10T17:56:56.629Z,1.20
2022-08-10T17:59:25.485Z,1.05
2022-08-10T18:01:58.572Z,1.38
2022-08-10T18:04:34.143Z,1.00
2022-08-10T18:07:03.394Z,1.10
2022-08-10T18:09:33.495Z,1.23
2022-08-10T18:12:10.440Z,1.08
2022-08-10T18:14:46.223Z,1.25
2022-08-10T18:17:15.857Z,1.20
2022-08-10T18:19:44.523Z,1.13
2022-08-10T18:22:13.160Z,1.42
2022-08-10T18:24:42.394Z,1.50
2022-08-10T18:27:13.175Z,1.60
2022-08-10T18:29:42.904Z,1.90
2022-08-10T18:34:39.763Z,1.38
2022-08-10T18:37:08.710Z,1.55
2022-08-10T18:39:37.180Z,1.50
2022-08-10T18:42:07.620Z,1.60
2022-08-10T18:44:38.983Z,1.60
2022-08-10T18:47:10.228Z,2.00
2022-08-10T18:49:42.174Z,1.85
2022-08-10T18:52:10.972Z,2.50
2022-08-10T18:54:45.302Z,2.30
2022-08-10T18:57:18.419Z,2.28
2022-08-10T19:00:07.923Z,1.63
2022-08-10T19:02:42.065Z,2.10
2022-08-10T19:05:30.541Z,2.30
2022-08-10T19:08:08.365Z,2.03
2022-08-10T19:10:43.409Z,2.45
2022-08-10T19:13:14.721Z,1.75
2022-08-10T19:15:49.476Z,2.08
2022-08-10T19:18:29.186Z,2.08
2022-08-10T19:20:58.855Z,1.95
2022-08-10T19:23:43.141Z,2.10
2022-08-10T19:26:42.617Z,2.28
2022-08-10T19:30:08.254Z,2.53
2022-08-10T19:32:07.469Z,2.20
2022-08-10T19:34:39.478Z,2.30
2022-08-10T19:37:11.013Z,2.15
2022-08-10T19:39:53.942Z,2.70
2022-08-10T19:42:30.151Z,2.22
2022-08-10T19:45:01.968Z,3.40
2022-08-10T19:50:01.602Z,4.72
2022-08-10T19:52:33.412Z,3.13
2022-08-10T19:55:05.914Z,7.72
2022-08-10T19:57:35.971Z,5.57
2022-08-10T20:00:19.758Z,2.53
2022-08-10T20:02:53.885Z,5.30
2022-08-10T20:05:28.195Z,3.50
2022-08-10T20:07:56.888Z,2.63
2022-08-10T20:10:25.541Z,2.00
2022-08-10T20:12:58.085Z,2.05
2022-08-10T20:15:30.467Z,1.90
2022-08-10T20:18:05.334Z,2.42
2022-08-10T20:20:45.727Z,2.70
2022-08-10T20:23:16.792Z,2.17
2022-08-10T20:25:47.084Z,2.70
2022-08-10T20:30:45.563Z,1.98
2022-08-10T20:33:18.292Z,2.10
2022-08-10T20:35:53.320Z,2.33
2022-08-10T20:38:27.268Z,2.20
2022-08-10T20:40:58.796Z,2.25
2022-08-10T20:43:33.236Z,1.80
2022-08-10T20:46:09.025Z,2.60
2022-08-10T20:48:38.983Z,1.58
2022-08-10T20:51:09.042Z,2.20
2022-08-10T20:53:42.447Z,1.75
2022-08-10T20:56:15.557Z,1.77
2022-08-10T20:59:10.125Z,1.52
2022-08-10T21:02:01.548Z,2.00
2022-08-10T21:04:40.247Z,1.95
2022-08-10T21:07:22.079Z,1.80
2022-08-10T21:10:02.779Z,1.55
2022-08-10T21:12:40.597Z,1.80
2022-08-10T21:15:13.951Z,2.05
2022-08-10T21:17:48.713Z,1.70
2022-08-10T21:20:30.461Z,1.30
2022-08-10T21:23:05.056Z,1.40
2022-08-10T21:25:40.208Z,1.50
2022-08-10T21:28:16.696Z,1.60
2022-08-10T21:31:04.531Z,1.60
2022-08-10T21:33:35.004Z,1.80
2022-08-10T21:36:09.621Z,1.60
2022-08-10T21:38:46.922Z,1.50
2022-08-10T21:41:57.881Z,1.40
2022-08-10T21:44:49.412Z,1.30
2022-08-10T21:48:05.064Z,1.48
2022-08-10T21:50:52.910Z,1.17
2022-08-10T21:56:36.831Z,1.40
2022-08-10T21:59:23.722Z,1.50
2022-08-10T22:02:11.627Z,1.30
2022-08-10T22:04:57.049Z,1.30
2022-08-10T22:07:42.746Z,1.60
2022-08-10T22:10:29.305Z,1.10
2022-08-10T22:13:17.686Z,1.80
2022-08-10T22:16:11.603Z,1.38
2022-08-10T22:19:02.653Z,1.35
2022-08-10T22:21:54.473Z,1.30
2022-08-10T22:24:45.380Z,1.50
2022-08-10T22:27:46.572Z,1.40
2022-08-10T22:30:57.914Z,1.30
2022-08-10T22:33:59.389Z,1.00
2022-08-10T22:36:53.353Z,1.15
2022-08-10T22:40:12.153Z,1.50
2022-08-10T22:42:59.065Z,1.23
2022-08-10T22:45:57.283Z,1.25
2022-08-10T22:48:42.057Z,1.10
2022-08-10T22:51:16.692Z,1.27
2022-08-10T22:54:04.019Z,1.23
2022-08-10T22:56:55.543Z,1.55
2022-08-10T22:59:27.463Z,1.27
2022-08-10T23:02:08.976Z,1.25
2022-08-10T23:04:44.740Z,1.48
2022-08-10T23:07:17.156Z,1.40
2022-08-10T23:09:45.996Z,1.60
2022-08-10T23:12:15.030Z,1.33
2022-08-10T23:14:59.052Z,1.40
2022-08-10T23:18:00.849Z,1.10
2022-08-10T23:20:31.105Z,1.40
2022-08-10T23:23:07.381Z,1.40
2022-08-10T23:25:43.735Z,1.45
2022-08-10T23:28:38.685Z,1.30
2022-08-10T23:31:13.679Z,1.38
2022-08-10T23:33:45.891Z,1.38
2022-08-10T23:36:33.502Z,1.42
2022-08-10T23:39:27.033Z,1.25
2022-08-10T23:41:55.019Z,1.40
2022-08-10T23:44:23.564Z,1.30
2022-08-10T23:46:51.553Z,1.55
2022-08-10T23:49:21.027Z,1.20
2022-08-10T23:51:56.226Z,1.38
2022-08-10T23:54:25.010Z,1.30
2022-08-10T23:56:54.650Z,1.95
2022-08-10T23:59:23.164Z,1.42
